createdAt,value
2022-12-18T01:00:35.804Z,-5.6
2022-12-18T01:06:26.847Z,-5.7
2022-12-18T01:12:17.472Z,-5.7
2022-12-18T01:18:07.988Z,-5.9
2022-12-18T01:23:59.092Z,-5.8
2022-12-18T01:29:49.600Z,-5.9
2022-12-18T01:35:39.958Z,-5.9
2022-12-18T01:41:30.951Z,-5.9
2022-12-18T01:47:21.887Z,-6
2022-12-18T01:53:12.706Z,-6
2022-12-18T01:59:04.059Z,-6
2022-12-18T02:04:54.606Z,-5.9
2022-12-18T02:10:45.278Z,-6.1
2022-12-18T02:16:38.032Z,-6
2022-12-18T02:22:29.120Z,-6.2
2022-12-18T02:28:20.102Z,-6.3
2022-12-18T02:34:11.631Z,-6.2
2022-12-18T02:40:02.186Z,-6.3
2022-12-18T02:45:53.401Z,-6.4
2022-12-18T02:51:45.272Z,-6.3
2022-12-18T02:57:35.960Z,-6.7
2022-12-18T03:03:26.967Z,-6.8
2022-12-18T03:09:18.440Z,-6.6
2022-12-18T03:15:12.113Z,-6.8
2022-12-18T03:21:07.200Z,-6.6
2022-12-18T03:26:58.190Z,-6.7
2022-12-18T03:32:48.876Z,-6.6
2022-12-18T03:38:46.648Z,-6.5
2022-12-18T03:44:36.999Z,-6.6
2022-12-18T03:50:28.373Z,-6.6
2022-12-18T03:56:19.928Z,-6.6
2022-12-18T04:02:11.994Z,-6.7
2022-12-18T04:08:04.002Z,-6.5
2022-12-18T04:13:57.700Z,-6.6
2022-12-18T04:20:04.935Z,-6.4
2022-12-18T04:25:56.235Z,-6.4
2022-12-18T04:31:46.725Z,-6.6
2022-12-18T04:37:37.930Z,-6.5
2022-12-18T04:43:28.300Z,-6.5
2022-12-18T04:49:19.519Z,-6.6
2022-12-18T04:55:11.332Z,-6.6
2022-12-18T05:01:02.106Z,-6.7
2022-12-18T05:06:54.124Z,-6.6
2022-12-18T05:12:44.466Z,-6.7
2022-12-18T05:18:35.265Z,-6.6
2022-12-18T05:24:27.496Z,-6.7
2022-12-18T05:30:18.707Z,-6.6
2022-12-18T05:36:10.124Z,-6.5
2022-12-18T05:42:01.205Z,-6.5
2022-12-18T05:47:52.432Z,-6.6
2022-12-18T05:53:44.456Z,-6.5
2022-12-18T05:59:35.293Z,-6.6
2022-12-18T06:05:26.110Z,-6.7
2022-12-18T06:11:17.330Z,-6.7
2022-12-18T06:17:08.437Z,-6.7
2022-12-18T06:22:59.519Z,-6.7
2022-12-18T06:28:49.986Z,-6.7
2022-12-18T06:34:40.913Z,-6.7
2022-12-18T06:40:31.298Z,-6.7
2022-12-18T06:46:21.874Z,-6.8
2022-12-18T06:52:12.768Z,-6.7
2022-12-18T12:52:56.106Z,-2.9
2022-12-18T14:26:49.701Z,-2.7
2022-12-18T14:32:48.317Z,-2.7
2022-12-18T14:39:02.335Z,-2.7
2022-12-18T15:04:04.578Z,-2.9
2022-12-18T15:10:08.019Z,-2.8
2022-12-18T16:06:05.299Z,-2.9
2022-12-18T16:11:58.996Z,-2.9
2022-12-18T16:38:23.026Z,-2.9
2022-12-18T16:50:56.057Z,-3
2022-12-18T16:56:48.146Z,-3
2022-12-18T17:02:53.079Z,-3
2022-12-18T17:40:16.276Z,-3
2022-12-18T19:12:45.001Z,-2.7
2022-12-18T19:19:05.271Z,-2.7
2022-12-18T20:02:43.255Z,-2.5
2022-12-18T20:09:33.595Z,-2.4
2022-12-18T20:15:29.709Z,-2.3
2022-12-18T22:21:43.715Z,-1.5
2022-12-18T23:00:12.333Z,-1.3
2022-12-18T23:06:31.051Z,-1.3
2022-12-18T23:51:34.087Z,-1
